createdAt,value
2023-04-22T00:00:48.166Z,55.74
2023-04-22T00:03:23.625Z,55.78
2023-04-22T00:05:56.284Z,55.93
2023-04-22T00:08:28.777Z,55.66
2023-04-22T00:11:01.337Z,55.69
2023-04-22T00:13:33.646Z,55.64
2023-04-22T00:16:06.725Z,55.68
2023-04-22T00:18:39.254Z,55.53
2023-04-22T00:21:11.887Z,55.55
2023-04-22T00:23:45.461Z,55.65
2023-04-22T00:26:17.805Z,55.65
2023-04-22T00:28:50.120Z,55.66
2023-04-22T00:31:22.522Z,55.50
2023-04-22T00:33:55.187Z,55.71
2023-04-22T00:36:28.927Z,55.74
2023-04-22T00:39:01.162Z,55.83
2023-04-22T00:41:34.564Z,55.94
2023-04-22T00:44:10.217Z,56.16
2023-04-22T00:46:42.916Z,56.19
2023-04-22T00:49:16.324Z,56.24
2023-04-22T00:51:48.810Z,56.28
2023-04-22T00:54:21.218Z,56.25
2023-04-22T00:56:54.044Z,56.22
2023-04-22T00:59:27.782Z,56.37
2023-04-22T01:02:01.555Z,56.40
2023-04-22T01:04:34.464Z,56.45
2023-04-22T01:07:06.889Z,56.48
2023-04-22T01:09:40.365Z,56.68
2023-04-22T01:12:13.213Z,56.77
2023-04-22T01:14:45.924Z,56.75
2023-04-22T01:17:19.603Z,56.81
2023-04-22T01:19:52.979Z,56.95
2023-04-22T01:22:27.424Z,56.96
2023-04-22T01:24:59.975Z,56.99
2023-04-22T01:27:32.601Z,56.95
2023-04-22T01:30:06.269Z,57.12
2023-04-22T01:32:40.314Z,57.19
2023-04-22T01:35:13.546Z,57.34
2023-04-22T01:37:45.884Z,57.49
2023-04-22T01:40:22.807Z,57.59
2023-04-22T01:42:55.280Z,57.59
2023-04-22T01:45:27.852Z,57.68
2023-04-22T01:48:00.395Z,57.58
2023-04-22T01:50:32.906Z,57.85
2023-04-22T01:53:05.589Z,57.94
2023-04-22T01:55:39.366Z,57.93
2023-04-22T01:58:11.994Z,58.06
2023-04-22T02:00:44.340Z,58.01
2023-04-22T02:03:17.278Z,58.16
2023-04-22T02:05:49.745Z,58.28
2023-04-22T02:08:22.109Z,58.40
2023-04-22T02:10:54.580Z,58.22
2023-04-22T02:13:27.109Z,58.34
2023-04-22T02:15:59.556Z,58.45
2023-04-22T02:18:31.879Z,58.55
2023-04-22T02:21:04.228Z,58.60
2023-04-22T02:23:37.396Z,58.69
2023-04-22T02:26:10.252Z,58.85
2023-04-22T02:28:42.868Z,58.88
2023-04-22T02:31:15.591Z,58.90
2023-04-22T02:33:47.818Z,58.89
2023-04-22T02:36:20.215Z,59.15
2023-04-22T02:38:52.526Z,59.16
2023-04-22T02:41:24.872Z,59.24
2023-04-22T02:43:57.252Z,59.43
2023-04-22T02:46:29.630Z,59.56
2023-04-22T02:49:02.322Z,59.60
2023-04-22T02:51:35.973Z,59.59
2023-04-22T02:54:08.491Z,59.59
2023-04-22T02:56:41.048Z,59.68
2023-04-22T02:59:13.406Z,59.69
2023-04-22T03:01:45.830Z,59.86
2023-04-22T03:04:18.748Z,59.85
2023-04-22T03:06:51.299Z,59.99
2023-04-22T03:09:23.628Z,60.00
2023-04-22T03:11:56.796Z,60.07
2023-04-22T03:14:29.392Z,60.25
2023-04-22T03:17:02.003Z,60.14
2023-04-22T03:19:34.765Z,60.21
2023-04-22T03:22:07.202Z,60.17
2023-04-22T03:24:39.640Z,60.27
2023-04-22T03:27:12.475Z,60.38
2023-04-22T03:29:44.813Z,60.35
2023-04-22T03:32:17.310Z,60.48
2023-04-22T03:34:49.978Z,60.53
2023-04-22T03:37:22.299Z,60.46
2023-04-22T03:39:54.584Z,60.39
2023-04-22T03:42:27.008Z,60.44
2023-04-22T03:44:59.607Z,60.56
2023-04-22T03:47:32.035Z,60.46
2023-04-22T03:50:04.444Z,60.56
2023-04-22T03:52:36.877Z,60.41
2023-04-22T03:55:10.329Z,60.40
2023-04-22T03:57:42.692Z,60.47
2023-04-22T04:00:16.266Z,60.35
2023-04-22T04:02:48.736Z,60.42
2023-04-22T04:05:21.915Z,60.34
2023-04-22T04:07:54.374Z,60.42
2023-04-22T04:10:27.026Z,60.47
2023-04-22T04:12:59.427Z,60.56
2023-04-22T04:15:32.533Z,60.48
2023-04-22T04:18:05.358Z,60.50
2023-04-22T04:20:37.667Z,60.45
2023-04-22T04:23:10.065Z,60.49
2023-04-22T04:25:42.922Z,60.56
2023-04-22T04:28:15.520Z,60.56
2023-04-22T04:30:48.051Z,60.67
2023-04-22T04:33:20.688Z,60.62
2023-04-22T04:35:54.263Z,60.66
2023-04-22T04:38:26.755Z,60.54
2023-04-22T04:40:59.376Z,60.50
2023-04-22T04:43:32.289Z,60.54
2023-04-22T04:46:04.884Z,60.60
2023-04-22T04:48:37.357Z,60.41
2023-04-22T04:51:10.345Z,60.57
2023-04-22T04:53:43.339Z,60.60
2023-04-22T04:56:15.791Z,60.49
2023-04-22T04:58:48.119Z,60.56
2023-04-22T05:01:20.581Z,60.38
2023-04-22T05:03:53.171Z,60.48
2023-04-22T05:06:26.735Z,60.55
2023-04-22T05:08:59.088Z,60.56
2023-04-22T05:11:31.315Z,60.47
2023-04-22T05:14:04.130Z,60.50
2023-04-22T05:16:36.749Z,60.50
2023-04-22T05:19:09.115Z,60.55
2023-04-22T05:21:41.449Z,60.38
2023-04-22T05:24:13.686Z,60.33
2023-04-22T05:26:46.349Z,60.34
2023-04-22T05:29:18.734Z,60.24
2023-04-22T05:31:51.307Z,60.05
2023-04-22T05:34:23.755Z,60.02
2023-04-22T05:36:56.158Z,60.00
2023-04-22T05:39:28.634Z,60.10
2023-04-22T05:42:00.978Z,60.03
2023-04-22T05:44:33.293Z,59.87
2023-04-22T05:47:05.989Z,59.93
2023-04-22T05:49:38.474Z,59.65
2023-04-22T05:52:11.107Z,59.50
2023-04-22T05:54:43.448Z,59.35
2023-04-22T05:57:16.211Z,59.07
2023-04-22T05:59:48.647Z,58.76
2023-04-22T06:02:21.157Z,58.54
2023-04-22T06:04:54.024Z,58.46
2023-04-22T06:07:26.691Z,58.43
2023-04-22T06:10:04.617Z,58.19
2023-04-22T06:12:38.605Z,57.92
2023-04-22T06:15:12.916Z,57.75
2023-04-22T06:17:45.861Z,57.52
2023-04-22T06:20:18.420Z,57.35
2023-04-22T06:22:51.194Z,56.98
2023-04-22T06:25:23.622Z,56.86
2023-04-22T06:27:56.271Z,56.57
2023-04-22T06:30:32.370Z,56.25
2023-04-22T06:33:04.890Z,55.94
2023-04-22T06:35:37.426Z,55.66
2023-04-22T06:38:09.909Z,55.47
2023-04-22T06:40:42.487Z,55.14
2023-04-22T06:43:15.002Z,54.67
2023-04-22T06:45:47.404Z,54.03
2023-04-22T06:48:19.823Z,53.69
2023-04-22T06:50:52.087Z,53.52
2023-04-22T06:53:24.460Z,53.10
2023-04-22T06:55:56.869Z,52.83
2023-04-22T06:58:30.724Z,52.45
2023-04-22T07:01:03.082Z,52.22
2023-04-22T07:03:35.934Z,51.95
2023-04-22T07:06:09.811Z,51.61
2023-04-22T07:08:42.326Z,51.32
2023-04-22T07:11:14.798Z,51.11
2023-04-22T07:13:47.137Z,50.95
2023-04-22T07:16:19.728Z,50.65
2023-04-22T07:18:52.022Z,50.24
2023-04-22T07:21:24.318Z,49.85
2023-04-22T07:23:56.650Z,48.64
2023-04-22T07:26:29.095Z,47.74
2023-04-22T07:29:01.481Z,48.22
2023-04-22T07:31:34.913Z,47.65
2023-04-22T07:34:07.882Z,47.02
2023-04-22T07:36:40.356Z,47.35
2023-04-22T07:39:13.425Z,47.37
2023-04-22T07:41:45.893Z,45.66
2023-04-22T07:44:21.662Z,46.42
2023-04-22T07:46:54.328Z,44.89
2023-04-22T07:49:26.727Z,44.77
2023-04-22T07:51:59.661Z,44.71
2023-04-22T07:54:31.876Z,44.78
2023-04-22T07:57:04.467Z,43.16
2023-04-22T07:59:37.398Z,44.46
2023-04-22T08:02:10.183Z,44.55
2023-04-22T08:04:42.840Z,44.50
2023-04-22T08:07:30.932Z,43.92
2023-04-22T08:10:06.798Z,43.47
2023-04-22T08:12:39.126Z,43.37
2023-04-22T08:15:12.649Z,43.13
2023-04-22T08:17:44.999Z,41.65
2023-04-22T08:20:18.327Z,41.55
2023-04-22T08:22:51.635Z,41.35
2023-04-22T08:25:24.136Z,40.99
2023-04-22T08:27:56.486Z,41.12
2023-04-22T08:30:28.996Z,40.37
2023-04-22T08:33:01.364Z,40.36
2023-04-22T08:35:35.590Z,40.41
2023-04-22T08:38:08.110Z,40.81
2023-04-22T08:40:43.483Z,40.86
2023-04-22T08:43:16.153Z,41.00
2023-04-22T08:45:48.684Z,39.91
2023-04-22T08:48:21.779Z,39.27
2023-04-22T08:50:55.128Z,39.64
2023-04-22T08:53:27.850Z,40.20
2023-04-22T08:56:02.079Z,39.67
2023-04-22T08:58:35.640Z,39.74
2023-04-22T09:01:08.489Z,39.99
2023-04-22T09:03:42.789Z,39.39
2023-04-22T09:06:15.455Z,38.14
2023-04-22T09:08:48.149Z,37.63
2023-04-22T09:11:21.084Z,38.07
2023-04-22T09:13:54.925Z,38.41
2023-04-22T09:16:27.285Z,37.97
2023-04-22T09:19:00.129Z,36.76
2023-04-22T09:21:36.465Z,37.06
2023-04-22T09:24:10.622Z,36.93
2023-04-22T09:26:44.913Z,36.81
2023-04-22T09:29:18.560Z,37.32
2023-04-22T09:31:53.695Z,37.38
2023-04-22T09:34:28.524Z,36.69
2023-04-22T09:37:00.752Z,36.47
2023-04-22T09:39:33.063Z,36.85
2023-04-22T09:42:05.673Z,36.53
2023-04-22T09:44:40.220Z,35.47
2023-04-22T09:47:12.710Z,35.46
2023-04-22T09:49:49.666Z,35.88
2023-04-22T09:52:27.590Z,35.93
2023-04-22T09:55:00.030Z,36.17
2023-04-22T09:57:32.544Z,36.13
2023-04-22T10:00:08.050Z,35.31
2023-04-22T10:02:38.890Z,34.84
2023-04-22T10:05:13.004Z,34.79
2023-04-22T10:07:46.076Z,34.45
2023-04-22T10:10:18.327Z,34.79
2023-04-22T10:12:51.457Z,35.00
2023-04-22T10:15:26.813Z,35.10
2023-04-22T10:18:01.234Z,34.95
2023-04-22T10:20:37.355Z,34.18
2023-04-22T10:23:16.058Z,34.31
2023-04-22T10:25:51.530Z,34.57
2023-04-22T10:28:25.284Z,34.49
2023-04-22T10:31:00.163Z,34.50
2023-04-22T10:33:42.289Z,34.56
2023-04-22T10:36:21.545Z,34.22
2023-04-22T10:39:18.263Z,34.02
2023-04-22T10:41:57.076Z,34.10
2023-04-22T10:44:46.436Z,34.13
2023-04-22T10:47:30.101Z,34.02
2023-04-22T10:50:21.333Z,33.75
2023-04-22T10:52:56.480Z,33.78
2023-04-22T10:55:49.097Z,33.62
2023-04-22T10:58:24.450Z,33.59
2023-04-22T11:01:00.382Z,33.36
2023-04-22T11:03:33.602Z,33.05
2023-04-22T11:06:20.086Z,33.39
2023-04-22T11:09:08.504Z,33.26
2023-04-22T11:11:41.337Z,33.08
2023-04-22T11:14:14.138Z,32.92
2023-04-22T11:16:52.927Z,33.13
2023-04-22T11:19:25.526Z,32.62
2023-04-22T11:21:58.811Z,32.91
2023-04-22T11:24:31.179Z,32.92
2023-04-22T11:27:03.774Z,32.98
2023-04-22T11:29:36.167Z,33.00
2023-04-22T11:32:11.488Z,33.09
2023-04-22T11:34:43.822Z,32.92
2023-04-22T11:37:19.950Z,32.74
2023-04-22T11:40:13.821Z,32.84
2023-04-22T11:42:44.767Z,33.24
2023-04-22T11:45:17.196Z,33.58
2023-04-22T11:47:50.921Z,33.63
2023-04-22T11:50:25.564Z,33.63
2023-04-22T11:52:59.331Z,33.58
2023-04-22T11:55:33.193Z,33.62
2023-04-22T11:58:09.784Z,33.55
2023-04-22T12:00:44.619Z,33.50
2023-04-22T12:03:19.269Z,33.51
2023-04-22T12:05:57.468Z,33.78
2023-04-22T12:08:34.203Z,33.63
2023-04-22T12:11:08.194Z,33.69
2023-04-22T12:13:46.903Z,33.73
2023-04-22T12:16:20.910Z,33.98
2023-04-22T12:18:54.480Z,34.08
2023-04-22T12:21:28.586Z,33.96
2023-04-22T12:24:05.166Z,34.04
2023-04-22T12:26:38.090Z,34.07
2023-04-22T12:29:10.838Z,34.12
2023-04-22T12:31:43.396Z,34.16
2023-04-22T12:34:16.017Z,34.00
2023-04-22T12:36:48.839Z,34.42
2023-04-22T12:39:21.038Z,34.29
2023-04-22T12:41:53.547Z,34.28
2023-04-22T12:44:25.829Z,34.45
2023-04-22T12:46:58.114Z,34.12
2023-04-22T12:49:30.602Z,34.37
2023-04-22T12:52:02.990Z,34.59
2023-04-22T12:54:35.503Z,34.50
2023-04-22T12:57:07.989Z,34.46
2023-04-22T12:59:40.923Z,34.73
2023-04-22T13:02:13.633Z,34.83
2023-04-22T13:04:46.863Z,34.82
2023-04-22T13:07:19.554Z,35.01
2023-04-22T13:09:51.891Z,35.25
2023-04-22T13:12:24.328Z,35.09
2023-04-22T13:14:56.756Z,35.17
2023-04-22T13:17:29.303Z,35.14
2023-04-22T13:20:01.826Z,35.27
2023-04-22T13:22:34.113Z,35.38
2023-04-22T13:25:07.148Z,35.53
2023-04-22T13:27:40.132Z,35.44
2023-04-22T13:30:14.216Z,35.47
2023-04-22T13:32:46.679Z,35.60
2023-04-22T13:35:19.385Z,35.81
2023-04-22T13:37:51.727Z,35.89
2023-04-22T13:40:24.153Z,35.73
2023-04-22T13:42:56.477Z,36.03
2023-04-22T13:45:28.891Z,36.15
2023-04-22T13:48:01.273Z,36.08
2023-04-22T13:50:34.166Z,36.28
2023-04-22T13:53:09.946Z,36.25
2023-04-22T13:55:43.459Z,36.79
2023-04-22T13:58:15.907Z,37.21
2023-04-22T14:00:48.447Z,37.59
2023-04-22T14:03:21.093Z,37.97
2023-04-22T14:05:54.082Z,38.22
2023-04-22T14:08:26.384Z,38.51
2023-04-22T14:10:59.553Z,39.03
2023-04-22T14:13:32.195Z,39.35
2023-04-22T14:16:09.764Z,39.63
2023-04-22T14:18:43.015Z,40.02
2023-04-22T14:21:16.025Z,40.61
2023-04-22T14:23:48.418Z,41.04
2023-04-22T14:26:20.929Z,41.28
2023-04-22T14:28:53.310Z,41.54
2023-04-22T14:31:26.079Z,41.75
2023-04-22T14:33:58.464Z,42.20
2023-04-22T14:36:31.304Z,42.49
2023-04-22T14:39:03.631Z,42.61
2023-04-22T14:41:36.139Z,42.95
2023-04-22T14:44:09.918Z,43.26
2023-04-22T14:46:42.229Z,43.64
2023-04-22T14:49:14.951Z,43.93
2023-04-22T14:51:47.332Z,44.21
2023-04-22T14:54:19.730Z,44.67
2023-04-22T14:56:55.364Z,44.92
2023-04-22T14:59:27.850Z,45.57
2023-04-22T15:02:00.278Z,46.31
2023-04-22T15:04:32.882Z,46.55
2023-04-22T15:07:07.504Z,46.54
2023-04-22T15:09:40.309Z,46.83
2023-04-22T15:12:13.042Z,46.95
2023-04-22T15:14:45.924Z,47.12
2023-04-22T15:17:18.310Z,47.57
2023-04-22T15:19:53.421Z,47.73
2023-04-22T15:22:25.980Z,47.94
2023-04-22T15:24:58.425Z,47.92
2023-04-22T15:27:30.778Z,47.98
2023-04-22T15:30:04.122Z,48.01
2023-04-22T15:32:37.283Z,48.04
2023-04-22T15:35:10.504Z,48.05
2023-04-22T15:37:43.114Z,48.09
2023-04-22T15:40:15.610Z,48.20
2023-04-22T15:42:47.930Z,48.27
2023-04-22T15:45:20.421Z,48.34
2023-04-22T15:47:54.298Z,48.25
2023-04-22T15:50:26.837Z,48.37
2023-04-22T15:52:59.329Z,48.51
2023-04-22T15:55:31.699Z,48.52
2023-04-22T15:58:03.920Z,48.72
2023-04-22T16:00:37.278Z,48.75
2023-04-22T16:03:10.727Z,48.68
2023-04-22T16:05:43.206Z,48.90
2023-04-22T16:08:15.654Z,48.93
2023-04-22T16:10:48.322Z,49.18
2023-04-22T16:13:20.827Z,49.62
2023-04-22T16:15:53.438Z,49.78
2023-04-22T16:18:26.735Z,49.98
2023-04-22T16:21:00.150Z,50.07
2023-04-22T16:23:32.604Z,50.41
2023-04-22T16:26:05.933Z,50.82
2023-04-22T16:28:38.231Z,51.08
2023-04-22T16:31:11.756Z,51.34
2023-04-22T16:33:44.132Z,51.39
2023-04-22T16:36:16.589Z,51.61
2023-04-22T16:38:48.753Z,51.82
2023-04-22T16:41:21.294Z,52.02
2023-04-22T16:43:54.086Z,52.16
2023-04-22T16:46:26.635Z,52.37
2023-04-22T16:48:58.920Z,52.40
2023-04-22T16:51:31.363Z,52.72
2023-04-22T16:54:03.793Z,52.89
2023-04-22T16:56:37.668Z,52.97
2023-04-22T16:59:10.435Z,52.98
2023-04-22T17:01:42.906Z,53.14
2023-04-22T17:04:15.502Z,53.19
2023-04-22T17:06:48.440Z,53.25
2023-04-22T17:09:21.138Z,53.39
2023-04-22T17:11:53.510Z,53.64
2023-04-22T17:14:27.518Z,53.72
2023-04-22T17:16:59.801Z,53.92
2023-04-22T17:19:32.157Z,54.02
2023-04-22T17:22:04.490Z,54.26
2023-04-22T17:24:37.189Z,54.41
2023-04-22T17:27:09.551Z,54.61
2023-04-22T17:29:41.989Z,54.68
2023-04-22T17:32:14.709Z,54.75
2023-04-22T17:34:47.152Z,54.82
2023-04-22T17:37:19.505Z,54.98
2023-04-22T17:39:51.731Z,55.00
2023-04-22T17:42:32.224Z,55.12
2023-04-22T17:45:13.982Z,55.18
2023-04-22T17:47:48.568Z,55.25
2023-04-22T17:50:21.205Z,55.53
2023-04-22T17:52:53.813Z,55.54
2023-04-22T17:55:26.055Z,55.62
2023-04-22T17:58:00.230Z,55.83
2023-04-22T18:00:32.880Z,55.90
2023-04-22T18:03:06.097Z,56.14
2023-04-22T18:05:43.351Z,56.39
2023-04-22T18:08:15.606Z,56.47
2023-04-22T18:10:47.866Z,56.54
2023-04-22T18:13:20.435Z,56.62
2023-04-22T18:15:52.850Z,56.68
2023-04-22T18:18:25.213Z,56.77
2023-04-22T18:20:57.869Z,56.83
2023-04-22T18:23:31.999Z,56.95
2023-04-22T18:26:09.805Z,57.11
2023-04-22T18:28:43.682Z,57.00
2023-04-22T18:31:16.152Z,57.01
2023-04-22T18:33:48.704Z,57.26
2023-04-22T18:36:21.607Z,57.33
2023-04-22T18:38:55.886Z,57.41
2023-04-22T18:41:28.456Z,57.42
2023-04-22T18:44:00.899Z,57.53
2023-04-22T18:46:33.328Z,57.42
2023-04-22T18:49:06.265Z,57.62
2023-04-22T18:51:39.959Z,57.64
2023-04-22T18:54:12.750Z,57.79
2023-04-22T18:56:46.128Z,57.80
2023-04-22T18:59:18.605Z,57.78
2023-04-22T19:01:51.154Z,57.93
2023-04-22T19:04:23.864Z,58.00
2023-04-22T19:06:57.252Z,58.08
2023-04-22T19:09:31.881Z,58.21
2023-04-22T19:12:04.134Z,58.26
2023-04-22T19:14:36.543Z,58.44
2023-04-22T19:17:08.912Z,58.45
2023-04-22T19:19:41.645Z,58.52
2023-04-22T19:22:16.307Z,58.69
2023-04-22T19:24:48.778Z,58.73
2023-04-22T19:27:22.018Z,58.82
2023-04-22T19:29:54.360Z,58.81
2023-04-22T19:32:27.323Z,59.04
2023-04-22T19:35:01.613Z,59.30
2023-04-22T19:37:35.719Z,59.26
2023-04-22T19:40:09.776Z,59.19
2023-04-22T19:42:42.178Z,59.29
2023-04-22T19:45:15.089Z,59.42
2023-04-22T19:47:48.349Z,59.59
2023-04-22T19:50:21.804Z,59.70
2023-04-22T19:53:00.623Z,59.76
2023-04-22T19:55:34.018Z,59.84
2023-04-22T19:58:06.918Z,59.88
2023-04-22T20:00:39.913Z,59.95
2023-04-22T20:03:14.545Z,59.87
2023-04-22T20:05:49.877Z,59.90
2023-04-22T20:08:27.059Z,59.96
2023-04-22T20:11:02.002Z,60.14
2023-04-22T20:13:34.614Z,60.15
2023-04-22T20:16:07.909Z,60.10
2023-04-22T20:18:41.045Z,60.13
2023-04-22T20:21:13.933Z,60.18
2023-04-22T20:23:47.582Z,60.15
2023-04-22T20:26:22.524Z,60.05
2023-04-22T20:28:55.204Z,60.37
2023-04-22T20:31:27.913Z,60.38
2023-04-22T20:34:01.054Z,60.34
2023-04-22T20:36:34.272Z,60.40
2023-04-22T20:39:09.167Z,60.41
2023-04-22T20:41:42.535Z,60.40
2023-04-22T20:44:15.355Z,60.40
2023-04-22T20:46:48.842Z,60.31
2023-04-22T20:49:21.345Z,60.36
2023-04-22T20:51:54.429Z,60.43
2023-04-22T20:54:29.278Z,60.57
2023-04-22T20:57:01.967Z,60.69
2023-04-22T20:59:34.653Z,60.92
2023-04-22T21:02:07.977Z,60.97
2023-04-22T21:04:42.032Z,61.00
2023-04-22T21:07:16.961Z,61.02
2023-04-22T21:09:49.962Z,61.03
2023-04-22T21:12:23.674Z,61.03
2023-04-22T21:14:57.465Z,60.84
2023-04-22T21:17:33.227Z,60.67
2023-04-22T21:20:10.356Z,60.81
2023-04-22T21:22:47.409Z,60.90
2023-04-22T21:25:24.534Z,60.86
2023-04-22T21:27:57.914Z,60.78
2023-04-22T21:30:31.318Z,60.74
2023-04-22T21:33:03.819Z,60.93
2023-04-22T21:35:36.545Z,60.97
2023-04-22T21:38:09.756Z,61.15
2023-04-22T21:40:42.043Z,61.07
2023-04-22T21:43:14.495Z,61.29
2023-04-22T21:45:46.823Z,61.19
2023-04-22T21:48:19.249Z,61.32
2023-04-22T21:50:51.742Z,61.24
2023-04-22T21:53:24.098Z,61.36
2023-04-22T21:55:56.441Z,61.45
2023-04-22T21:58:28.739Z,61.50
2023-04-22T22:01:01.174Z,61.50
2023-04-22T22:03:33.844Z,61.67
2023-04-22T22:06:07.062Z,61.79
2023-04-22T22:08:39.606Z,61.63
2023-04-22T22:11:20.203Z,61.69
2023-04-22T22:14:00.372Z,61.82
2023-04-22T22:16:33.556Z,61.81
2023-04-22T22:19:06.580Z,61.77
2023-04-22T22:21:39.032Z,61.84
2023-04-22T22:24:11.667Z,61.84
2023-04-22T22:26:44.399Z,62.06
2023-04-22T22:29:16.845Z,61.98
2023-04-22T22:31:49.186Z,61.93
2023-04-22T22:34:21.563Z,62.10
2023-04-22T22:36:53.828Z,62.12
2023-04-22T22:39:26.498Z,62.04
2023-04-22T22:41:59.929Z,62.15
2023-04-22T22:44:32.230Z,62.20
2023-04-22T22:47:04.707Z,62.07
2023-04-22T22:49:37.182Z,62.20
2023-04-22T22:52:09.522Z,62.52
2023-04-22T22:54:42.724Z,62.48
2023-04-22T22:57:15.833Z,62.45
2023-04-22T22:59:48.161Z,62.41
2023-04-22T23:02:20.789Z,62.41
2023-04-22T23:04:54.077Z,62.61
2023-04-22T23:07:26.523Z,62.72
2023-04-22T23:09:59.078Z,62.71
2023-04-22T23:12:31.451Z,62.69
2023-04-22T23:15:03.863Z,62.74
2023-04-22T23:17:36.716Z,62.84
2023-04-22T23:20:12.616Z,62.71
2023-04-22T23:22:44.034Z,62.86
2023-04-22T23:25:18.596Z,62.90
2023-04-22T23:27:51.874Z,62.99
2023-04-22T23:30:25.898Z,63.12
2023-04-22T23:33:02.967Z,63.06
2023-04-22T23:35:37.261Z,63.19
2023-04-22T23:38:12.683Z,63.09
2023-04-22T23:40:45.147Z,63.20
2023-04-22T23:43:17.707Z,63.27
2023-04-22T23:45:50.242Z,63.33
2023-04-22T23:48:22.844Z,63.28
2023-04-22T23:50:55.332Z,63.41
2023-04-22T23:53:27.756Z,63.37
2023-04-22T23:56:00.987Z,63.60
2023-04-22T23:58:33.988Z,63.43
